Pagina principale
METAR-TAF:

METAR-TAF

Aeroporti :

Tolone, Francia

Aeroporto di Tolone-Hyères

latitudine: 43-06N, longitudine: 006-09E, altezza: 3 m

Osservazione

Il bollettino è stato emesso 41 minuti fa, alle 09:00 UTC
Vento 5 kt da sud-est, variando fra est e sud/sud-est
Temperature 25°C
Umidità 39%
Pressione 1017 hPa
Visibilità 10 km o più
nessuna nube inferiore a 1500 m e nessun cumulonembo

METAR: LFTH 290900Z AUTO 14005KT 100V160 CAVOK 25/10 Q1017 NOSIG

Ora: 11:41 (09:41 UTC)

Previsione

Il bollettino è stato emesso 1 ora e 41 minuti fa, alle 08:00 UTC
Previsione valida dal 29 alle 09 UTC al 30 alle 09 UTC
Vento 5 kt da est/sud-est
Visibilità 10 km o più
nessuna nube inferiore a 1500 m e nessun cumulonembo
Probabilità 30% :
Temporaneamente
dal 30 alle 03 UTC al 30 alle 09 UTC
Visibilità: 3000 m
foschia

TAF: LFTH 290800Z 2909/3009 11005KT CAVOK PROB30 TEMPO 3003/3009 3000 BR

Osservazioni e previsioni meteorologiche di più di 4000 aeroporti (messaggi METAR e TAF).

Le stazioni disponibili sono rappresentate dai dischi gialli e rossi sulla carta.

Puntare il mouse per vedere il nome della stazione.

Clicca sopra per visualizzare le osservazioni e previsioni meteorologiche.

Per cambiare la mappa : fare clic sui pulsanti verdi con una croce nera per ingrandire, il pulsante verde con un trattino per diminuire, o sulla freccia verde per le mappe adiacenti.


METAR-TAF: